Terminal Aerodrome Forecast
Issued by NWS Blacksburg, VA

Home | Current Version | Previous Version | Text Only | Print | Product List | Glossary On
Versions: 1 2 3 4 5 6 7 8 9 10 11 12 13 14 15 16 17 18 19 20 21 22 23 24
000
FTUS41 KRNK 011727
TAFDAN
TAF
KDAN 011727Z 0118/0218 16006KT P6SM SCT120 BKN200
     FM020500 18008KT P6SM -RA OVC030
     FM020800 20008KT 3SM -RA BR SCT007 OVC015
     FM021100 21008KT 1 1/2SM RA BR OVC004
     FM021500 26012KT P6SM OVC035
     FM021700 28018G30KT P6SM BKN050=

USA.gov is the U.S. government's official web portal to all federal, state and local government web resources and services.